Time;durP1;ratioP1;P1;durP2;ratioP2;P2;SDS_P1;SDS_P2;PMS_P1;PMS_P2;Temp;Humidity;BMP_temperature;BMP_pressure;BME280_temperature;BME280_humidity;BME280_pressure;Samples;Min_cycle;Max_cycle;Signal;HPM_P1;HPM_P2
2022/09/03 00:01:20;;;;;;;19.03;15.60;;;;;;;21.54;100.00;99225.03;4995682;28;20643;-65
2022/09/03 00:03:52;;;;;;;17.03;15.23;;;;;;;21.57;100.00;99229.88;4997464;28;20202;-66
2022/09/03 00:06:28;;;;;;;17.50;15.50;;;;;;;21.56;100.00;99228.25;4998405;28;20632;-66
2022/09/03 00:08:58;;;;;;;19.73;16.40;;;;;;;21.58;100.00;99234.22;4999704;28;20185;-65
2022/09/03 00:11:31;;;;;;;17.77;16.20;;;;;;;21.50;100.00;99232.06;5000838;28;20201;-65
2022/09/03 00:14:02;;;;;;;21.27;14.87;;;;;;;21.49;100.00;99238.56;4997189;28;20187;-66
2022/09/03 00:16:36;;;;;;;16.10;14.67;;;;;;;21.56;100.00;99236.34;4997117;28;21068;-65
2022/09/03 00:19:05;;;;;;;16.20;14.73;;;;;;;21.52;100.00;99234.50;5000316;28;20654;-66
2022/09/03 00:21:39;;;;;;;13.97;12.70;;;;;;;21.53;100.00;99239.63;5001861;28;20678;-65
2022/09/03 00:24:11;;;;;;;14.93;13.50;;;;;;;21.51;100.00;99238.28;4998231;28;20198;-66
2022/09/03 00:26:40;;;;;;;13.87;12.47;;;;;;;21.54;100.00;99240.41;4999073;28;20238;-65
2022/09/03 00:29:12;;;;;;;14.27;13.17;;;;;;;21.44;100.00;99241.25;4998859;28;20209;-65
2022/09/03 00:31:43;;;;;;;14.77;13.37;;;;;;;21.50;100.00;99240.16;5001030;28;20191;-66
2022/09/03 00:34:16;;;;;;;13.40;12.23;;;;;;;21.60;100.00;99233.94;4998468;28;20276;-66
2022/09/03 00:36:45;;;;;;;15.27;13.70;;;;;;;21.51;100.00;99238.28;4999481;28;20217;-66
2022/09/03 00:39:14;;;;;;;15.03;13.87;;;;;;;21.33;100.00;99228.84;4999668;28;20202;-66
2022/09/03 00:41:52;;;;;;;17.13;13.80;;;;;;;21.30;100.00;99229.38;4995203;28;20635;-66
2022/09/03 00:44:43;;;;;;;22.20;15.37;;;;;;;21.33;100.00;99228.00;4998209;28;20268;-66
2022/09/03 00:47:17;;;;;;;16.07;14.57;;;;;;;21.14;100.00;99225.06;4997783;28;20190;-67
2022/09/03 00:49:57;;;;;;;18.47;16.60;;;;;;;21.18;100.00;99220.72;4997811;28;20197;-67
2022/09/03 00:52:38;;;;;;;17.67;16.07;;;;;;;21.19;100.00;99225.06;4997522;28;20839;-67
2022/09/03 00:55:16;;;;;;;19.57;17.77;;;;;;;21.22;100.00;99221.81;4997240;28;20556;-67
2022/09/03 00:57:55;;;;;;;18.27;16.60;;;;;;;21.28;100.00;99220.75;4994100;28;20238;-67
2022/09/03 01:00:22;;;;;;;18.37;16.17;;;;;;;21.27;100.00;99224.50;5000374;28;20190;-67
2022/09/03 01:03:05;;;;;;;21.50;17.13;;;;;;;21.22;100.00;99221.81;4999382;28;20210;-67
2022/09/03 01:05:47;;;;;;;18.43;16.63;;;;;;;21.14;100.00;99227.75;5002330;28;20252;-66
2022/09/03 01:08:30;;;;;;;21.17;17.27;;;;;;;21.06;100.00;99228.28;5000144;28;20194;-66
2022/09/03 01:11:09;;;;;;;18.67;16.97;;;;;;;21.01;100.00;99227.47;4998088;28;20661;-66
2022/09/03 01:13:40;;;;;;;19.63;17.57;;;;;;;21.01;100.00;99235.59;4999479;28;20214;-67
2022/09/03 01:16:20;;;;;;;22.40;17.97;;;;;;;21.07;100.00;99229.91;4999188;28;20214;-67
2022/09/03 01:18:59;;;;;;;20.03;17.70;;;;;;;20.91;100.00;99233.72;4996692;28;20654;-67
2022/09/03 01:21:47;;;;;;;17.87;15.97;;;;;;;20.98;100.00;99231.53;4997322;28;20190;-67
2022/09/03 01:24:38;;;;;;;19.13;17.43;;;;;;;20.96;100.00;99233.72;4994580;28;20646;-67
2022/09/03 01:27:19;;;;;;;18.27;16.47;;;;;;;20.91;100.00;99231.00;4994709;28;20234;-64
2022/09/03 01:29:55;;;;;;;18.73;16.03;;;;;;;20.71;100.00;99230.94;5001140;28;20213;-65
2022/09/03 01:32:28;;;;;;;21.33;16.27;;;;;;;20.60;100.00;99229.31;4998803;28;20201;-65
2022/09/03 01:35:12;;;;;;;18.13;16.20;;;;;;;20.58;100.00;99217.16;4999794;28;20670;-64
2022/09/03 01:37:46;;;;;;;17.77;15.90;;;;;;;20.67;100.00;99235.25;4996981;28;20272;-66
2022/09/03 01:40:22;;;;;;;17.53;15.87;;;;;;;20.70;100.00;99228.50;4996832;28;20307;-66
2022/09/03 01:43:06;;;;;;;17.47;16.00;;;;;;;20.71;100.00;99233.66;4998097;28;20198;-66
2022/09/03 01:45:47;;;;;;;17.70;15.87;;;;;;;20.61;100.00;99230.91;4996812;28;20662;-66
2022/09/03 01:48:29;;;;;;;17.03;15.30;;;;;;;20.70;100.00;99234.69;4998859;28;20269;-66
2022/09/03 01:51:03;;;;;;;18.20;16.30;;;;;;;20.61;100.00;99230.91;4997406;28;20657;-66
2022/09/03 01:53:45;;;;;;;24.40;15.93;;;;;;;20.58;100.00;99225.25;4996939;28;20619;-66
2022/09/03 01:56:25;;;;;;;16.63;15.13;;;;;;;20.62;100.00;99224.44;4993875;28;20744;-66
2022/09/03 01:58:59;;;;;;;17.13;15.50;;;;;;;20.50;100.00;99224.69;4995255;28;20249;-67
2022/09/03 02:01:31;;;;;;;17.07;15.30;;;;;;;20.30;100.00;99213.84;4994275;28;20662;-67
2022/09/03 02:03:59;;;;;;;16.73;15.20;;;;;;;20.48;100.00;99220.63;4998665;28;20650;-66
2022/09/03 02:06:26;;;;;;;18.40;16.40;;;;;;;20.40;100.00;99221.97;5000940;28;20202;-66
2022/09/03 02:08:53;;;;;;;18.50;16.80;;;;;;;20.35;100.00;99224.63;4997119;28;20248;-66
2022/09/03 02:11:20;;;;;;;17.47;15.87;;;;;;;20.41;100.00;99231.69;4994000;28;20265;-66
2022/09/03 02:13:50;;;;;;;17.90;16.17;;;;;;;20.35;100.00;99227.34;4995607;28;20209;-66
2022/09/03 02:16:21;;;;;;;17.63;15.60;;;;;;;20.45;100.00;99240.06;4993585;28;20226;-66
2022/09/03 02:18:52;;;;;;;17.67;15.97;;;;;;;20.41;100.00;99241.66;5001648;28;20194;-66
2022/09/03 02:21:21;;;;;;;16.57;15.23;;;;;;;20.37;100.00;99241.38;4998737;28;20198;-66
2022/09/03 02:23:49;;;;;;;20.20;15.20;;;;;;;20.31;100.00;99245.13;4998945;28;20201;-66
2022/09/03 02:26:19;;;;;;;14.73;13.13;;;;;;;20.29;100.00;99249.16;4995639;28;20981;-66
2022/09/03 02:28:46;;;;;;;15.53;13.83;;;;;;;20.37;100.00;99241.38;4997431;28;20624;-67
2022/09/03 02:31:13;;;;;;;14.97;13.90;;;;;;;20.46;100.00;99252.50;4996070;28;20202;-66
2022/09/03 02:33:44;;;;;;;14.30;12.87;;;;;;;20.48;100.00;99259.25;4996915;28;20314;-66
2022/09/03 02:36:15;;;;;;;16.60;14.77;;;;;;;20.40;100.00;99251.66;4998843;28;20210;-66
2022/09/03 02:38:44;;;;;;;15.37;14.00;;;;;;;20.36;100.00;99250.56;4997102;28;20194;-65
2022/09/03 02:41:14;;;;;;;15.43;13.83;;;;;;;20.25;100.00;99253.47;4998202;28;20201;-65
2022/09/03 02:43:47;;;;;;;19.03;13.97;;;;;;;20.33;100.00;99261.06;5000676;28;20195;-65
2022/09/03 02:46:21;;;;;;;15.33;13.80;;;;;;;20.42;100.00;99259.50;4999181;28;20625;-65
2022/09/03 02:48:48;;;;;;;17.23;13.77;;;;;;;20.50;100.00;99261.69;5002277;28;20220;-65
2022/09/03 02:51:16;;;;;;;16.93;14.10;;;;;;;20.53;100.00;99266.53;4997976;28;20260;-65
2022/09/03 02:53:43;;;;;;;16.27;14.57;;;;;;;20.38;100.00;99261.09;5001836;28;20202;-65
2022/09/03 02:56:10;;;;;;;18.97;15.70;;;;;;;20.36;100.00;99265.94;4998168;28;20316;-65
2022/09/03 02:58:37;;;;;;;18.73;14.43;;;;;;;20.45;100.00;99264.34;4999268;28;20987;-65
2022/09/03 03:01:05;;;;;;;16.10;14.60;;;;;;;20.44;100.00;99254.63;5001508;28;20242;-65
2022/09/03 03:03:31;;;;;;;16.33;14.63;;;;;;;20.44;100.00;99262.72;5000771;28;20202;-65
2022/09/03 03:06:02;;;;;;;14.60;13.40;;;;;;;20.44;100.00;99262.72;4999519;28;20257;-66
2022/09/03 03:08:31;;;;;;;15.30;13.90;;;;;;;20.42;100.00;99259.50;5002251;28;20248;-65
2022/09/03 03:10:59;;;;;;;16.30;14.93;;;;;;;20.43;100.00;99261.09;4998086;28;20681;-65
2022/09/03 03:13:26;;;;;;;16.70;14.87;;;;;;;20.37;100.00;99259.44;5001276;28;20205;-66
2022/09/03 03:15:56;;;;;;;15.67;14.27;;;;;;;20.35;100.00;99262.41;5001990;28;20226;-65
2022/09/03 03:18:23;;;;;;;15.53;13.90;;;;;;;20.37;100.00;99262.16;5000314;28;20230;-65
2022/09/03 03:20:50;;;;;;;17.97;14.87;;;;;;;20.31;100.00;99252.44;5003061;28;20195;-65
2022/09/03 03:23:17;;;;;;;16.20;14.47;;;;;;;20.30;100.00;99250.81;4995647;28;20261;-65
2022/09/03 03:25:45;;;;;;;15.63;14.07;;;;;;;20.14;100.00;99257.22;5000732;28;20206;-66
2022/09/03 03:28:14;;;;;;;16.80;13.87;;;;;;;20.06;100.00;99265.78;5004624;28;20296;-65
2022/09/03 03:30:41;;;;;;;15.93;14.50;;;;;;;19.94;100.00;99257.88;4994292;28;20604;-65
2022/09/03 03:33:08;;;;;;;15.57;14.13;;;;;;;19.94;100.00;99262.47;4998146;28;20297;-65
2022/09/03 03:35:35;;;;;;;15.47;13.90;;;;;;;19.86;100.00;99257.59;4999510;28;20634;-65
2022/09/03 03:38:03;;;;;;;17.60;14.70;;;;;;;19.78;100.00;99258.06;5000884;28;20226;-65
2022/09/03 03:40:30;;;;;;;17.90;14.50;;;;;;;19.71;100.00;99258.31;5000222;28;20297;-65
2022/09/03 03:42:59;;;;;;;14.23;12.83;;;;;;;19.69;100.00;99235.38;4997356;28;20665;-66
2022/09/03 03:45:25;;;;;;;15.13;13.30;;;;;;;19.92;100.00;99254.66;5001711;28;20737;-66
2022/09/03 03:47:52;;;;;;;16.00;14.30;;;;;;;19.83;100.00;99267.00;5000470;28;20213;-65
2022/09/03 03:50:19;;;;;;;15.60;13.83;;;;;;;19.65;100.00;99261.22;4998918;28;20711;-65
2022/09/03 03:52:47;;;;;;;19.07;14.87;;;;;;;19.74;100.00;99267.75;4994861;28;20202;-66
2022/09/03 03:55:14;;;;;;;17.10;14.07;;;;;;;19.81;100.00;99266.44;5000311;28;20575;-66
2022/09/03 03:57:41;;;;;;;14.00;12.50;;;;;;;19.81;100.00;99263.75;5002968;28;20711;-66
2022/09/03 04:00:10;;;;;;;15.27;13.00;;;;;;;19.79;100.00;99265.09;4999654;28;20217;-66
2022/09/03 04:02:37;;;;;;;13.40;12.20;;;;;;;19.84;100.00;99255.16;5000699;28;20257;-66
2022/09/03 04:05:04;;;;;;;13.37;12.27;;;;;;;19.83;100.00;99255.41;5005216;28;20739;-66
2022/09/03 04:07:30;;;;;;;13.77;12.57;;;;;;;19.84;100.00;99259.72;5003438;28;20607;-66
2022/09/03 04:09:57;;;;;;;13.03;11.83;;;;;;;19.82;100.00;99264.56;4997857;28;20209;-66
2022/09/03 04:12:24;;;;;;;14.00;11.90;;;;;;;19.89;100.00;99270.53;4997692;28;20197;-67
2022/09/03 04:14:50;;;;;;;13.00;11.83;;;;;;;19.88;100.00;99266.22;4997661;28;20689;-67
2022/09/03 04:17:20;;;;;;;12.57;11.47;;;;;;;19.95;100.00;99264.09;4998966;28;20222;-67
2022/09/03 04:19:47;;;;;;;12.87;11.77;;;;;;;20.11;100.00;99269.34;5000001;28;20711;-67
2022/09/03 04:22:14;;;;;;;11.67;10.57;;;;;;;20.18;100.00;99271.81;5000397;28;20678;-67
2022/09/03 04:24:41;;;;;;;10.70;9.70;;;;;;;20.31;100.00;99274.00;5004001;28;20574;-67
2022/09/03 04:27:08;;;;;;;10.83;9.83;;;;;;;20.55;100.00;99275.19;5004193;28;20238;-67
2022/09/03 04:29:34;;;;;;;10.47;9.67;;;;;;;20.77;100.00;99275.75;5002189;28;20633;-64
2022/09/03 04:34:47;;;;;;;10.33;9.43;;;;;;;21.24;96.91;99287.22;4997694;28;20202;-65
2022/09/03 04:37:15;;;;;;;10.03;8.87;;;;;;;21.41;95.48;99284.22;5001398;28;20762;-65
2022/09/03 04:39:42;;;;;;;9.33;8.40;;;;;;;21.76;93.46;99293.13;4999199;28;20202;-65
2022/09/03 04:42:08;;;;;;;8.30;7.70;;;;;;;21.97;91.50;99288.50;5002885;28;20256;-65
2022/09/03 04:44:37;;;;;;;9.20;8.40;;;;;;;22.23;90.42;99298.16;4999032;28;20682;-66
2022/09/03 04:47:04;;;;;;;9.37;7.87;;;;;;;22.35;88.74;99296.78;4998542;28;20286;-66
2022/09/03 04:49:31;;;;;;;8.47;7.77;;;;;;;22.45;88.13;99296.72;5000296;28;20202;-66
2022/09/03 04:51:59;;;;;;;8.40;7.37;;;;;;;22.67;87.51;99296.38;4999716;28;20198;-66
2022/09/03 04:54:25;;;;;;;8.33;7.73;;;;;;;22.86;86.35;99309.00;4997771;28;20260;-66
2022/09/03 04:56:52;;;;;;;8.00;7.33;;;;;;;23.12;85.55;99312.34;4998976;28;20296;-66
2022/09/03 04:59:19;;;;;;;9.80;6.00;;;;;;;23.51;83.70;99316.69;4999286;28;20195;-66
2022/09/03 05:01:45;;;;;;;8.03;6.83;;;;;;;23.80;83.38;99327.53;5000998;28;20279;-67
2022/09/03 05:04:12;;;;;;;7.83;6.90;;;;;;;24.24;80.67;99329.03;4998394;28;20202;-67
2022/09/03 05:06:39;;;;;;;9.00;7.03;;;;;;;24.66;79.16;99329.09;4994553;28;20202;-68
2022/09/03 05:09:07;;;;;;;7.63;7.03;;;;;;;24.92;78.23;99341.22;4996907;28;20200;-68
2022/09/03 05:11:34;;;;;;;6.87;6.37;;;;;;;25.29;77.73;99326.88;4993986;28;20205;-68
2022/09/03 05:14:01;;;;;;;6.33;5.87;;;;;;;25.46;75.38;99331.75;4996874;28;20644;-69
2022/09/03 05:16:29;;;;;;;6.80;6.33;;;;;;;25.79;74.45;99336.09;4998066;28;20258;-68
2022/09/03 05:18:59;;;;;;;9.87;7.27;;;;;;;26.25;72.47;99339.66;4999106;28;20215;-68
2022/09/03 05:21:27;;;;;;;6.67;6.17;;;;;;;26.47;71.52;99346.03;5005500;28;20187;-69
2022/09/03 05:23:54;;;;;;;6.53;6.20;;;;;;;26.76;70.67;99351.16;4997832;28;20198;-68
2022/09/03 05:26:24;;;;;;;6.70;6.10;;;;;;;27.05;68.95;99351.63;5000443;28;20358;-68
2022/09/03 05:28:54;;;;;;;7.13;6.20;;;;;;;26.95;68.58;99355.38;4993584;28;20630;-69
2022/09/03 05:31:21;;;;;;;7.27;6.20;;;;;;;26.74;68.25;99356.91;4997307;28;20263;-69
2022/09/03 05:33:49;;;;;;;6.53;5.90;;;;;;;26.90;68.07;99357.44;4999368;28;20194;-68
2022/09/03 05:36:19;;;;;;;8.43;5.77;;;;;;;27.20;68.42;99352.09;4998713;28;20193;-68
2022/09/03 05:38:47;;;;;;;6.83;6.30;;;;;;;27.46;65.86;99364.06;4998202;28;20217;-68
2022/09/03 05:41:15;;;;;;;7.20;5.27;;;;;;;27.63;66.63;99363.38;5002917;28;20692;-68
2022/09/03 05:43:44;;;;;;;6.03;5.73;;;;;;;27.76;63.63;99366.03;4997687;28;20326;-69
2022/09/03 05:46:14;;;;;;;6.70;6.17;;;;;;;27.76;64.63;99367.97;4996549;28;20620;-68
2022/09/03 05:48:41;;;;;;;6.57;5.37;;;;;;;28.18;63.92;99367.47;5000292;28;20222;-69
2022/09/03 05:51:10;;;;;;;7.37;5.23;;;;;;;28.19;62.76;99374.53;5000105;28;20570;-68
2022/09/03 05:53:39;;;;;;;8.10;5.07;;;;;;;28.12;62.09;99374.16;4999029;28;20747;-69
2022/09/03 05:56:09;;;;;;;8.77;5.60;;;;;;;28.37;61.49;99373.47;4993718;28;20256;-69
2022/09/03 05:58:39;;;;;;;7.13;6.13;;;;;;;28.69;59.98;99378.63;4997861;28;20277;-69
2022/09/03 06:01:13;;;;;;;5.23;4.90;;;;;;;28.67;59.88;99376.19;4993686;28;20299;-67
2022/09/03 06:03:39;;;;;;;7.03;5.40;;;;;;;28.91;59.78;99357.44;4994783;28;20198;-70
2022/09/03 06:06:07;;;;;;;5.60;5.07;;;;;;;29.28;59.01;99373.28;4995662;28;20198;-69
2022/09/03 06:08:34;;;;;;;5.73;4.87;;;;;;;29.52;57.96;99380.22;4994709;28;20678;-69
2022/09/03 06:11:02;;;;;;;5.37;5.03;;;;;;;29.44;57.78;99384.59;4999272;28;20194;-69
2022/09/03 06:13:30;;;;;;;5.37;4.97;;;;;;;29.32;57.22;99381.69;4996241;28;20272;-71
2022/09/03 06:15:57;;;;;;;6.20;5.53;;;;;;;29.14;57.54;99378.13;4991502;28;20203;-73
2022/09/03 06:18:26;;;;;;;6.17;5.50;;;;;;;29.30;57.97;99375.72;4996605;28;20732;-74
2022/09/03 06:20:57;;;;;;;11.00;6.07;;;;;;;29.42;58.25;99381.34;5000384;28;20206;-70
2022/09/03 06:23:24;;;;;;;7.07;5.50;;;;;;;29.70;58.31;99370.91;4991530;28;20629;-71
2022/09/03 06:26:00;;;;;;;6.77;6.13;;;;;;;29.82;57.65;99382.81;5003328;28;20202;-71
2022/09/03 06:28:27;;;;;;;12.73;5.87;;;;;;;29.93;56.61;99377.81;4997208;28;20701;-70
2022/09/03 06:30:57;;;;;;;6.67;6.00;;;;;;;29.81;57.78;99383.94;4999085;28;20206;-72
2022/09/03 06:33:25;;;;;;;56.17;9.67;;;;;;;30.00;57.14;99381.66;5005475;28;20206;-71
2022/09/03 06:35:56;;;;;;;6.23;5.67;;;;;;;29.69;56.43;99381.06;4995855;28;20197;-71
2022/09/03 06:38:23;;;;;;;6.83;5.80;;;;;;;29.46;57.16;99376.84;5000256;28;20215;-72
2022/09/03 06:40:53;;;;;;;7.27;5.90;;;;;;;29.50;57.30;99383.28;4999175;28;20670;-70
2022/09/03 06:43:20;;;;;;;8.17;5.57;;;;;;;29.17;56.80;99379.41;5003809;28;20213;-73
2022/09/03 06:45:53;;;;;;;12.17;5.73;;;;;;;28.87;59.12;99375.63;5000836;28;20285;-71
2022/09/03 06:48:20;;;;;;;5.60;5.10;;;;;;;28.31;59.98;99385.69;5001996;28;20201;-71
2022/09/03 06:50:55;;;;;;;6.20;5.80;;;;;;;28.28;60.93;99381.66;5002824;28;20194;-74
2022/09/03 06:53:24;;;;;;;7.10;6.50;;;;;;;28.19;62.37;99371.78;4995306;28;20277;-71
2022/09/03 06:55:54;;;;;;;7.37;6.67;;;;;;;27.86;62.34;99365.00;5002374;28;20646;-76
2022/09/03 06:58:22;;;;;;;7.63;6.40;;;;;;;27.63;63.03;99372.38;4999493;28;20221;-70
2022/09/03 07:00:49;;;;;;;7.17;6.53;;;;;;;27.71;64.74;99371.63;4996159;28;20249;-73
2022/09/03 07:03:16;;;;;;;6.67;6.07;;;;;;;28.17;62.54;99371.31;4998790;28;20280;-73
2022/09/03 07:05:43;;;;;;;6.33;5.80;;;;;;;28.40;61.23;99379.13;5006680;28;20240;-67
2022/09/03 07:08:11;;;;;;;16.20;6.27;;;;;;;29.00;59.56;99384.84;5000672;28;20268;-67
2022/09/03 07:10:38;;;;;;;6.07;5.43;;;;;;;29.38;58.86;99388.59;4998946;28;20284;-68
2022/09/03 07:13:06;;;;;;;7.13;6.07;;;;;;;29.18;58.33;99370.88;5002925;28;20201;-70
2022/09/03 07:15:32;;;;;;;6.07;5.57;;;;;;;29.26;58.38;99382.16;5002932;28;20289;-70
2022/09/03 07:17:59;;;;;;;6.70;5.23;;;;;;;29.10;58.53;99390.00;5003117;28;20313;-74
2022/09/03 07:20:26;;;;;;;6.63;6.23;;;;;;;28.93;58.75;99379.00;4998080;28;20356;-69
2022/09/03 07:22:56;;;;;;;6.50;5.90;;;;;;;28.81;58.84;99392.50;5004660;28;20201;-70
2022/09/03 07:25:26;;;;;;;6.50;6.00;;;;;;;29.05;58.50;99403.84;5001067;28;20207;-70
2022/09/03 07:27:53;;;;;;;9.40;6.83;;;;;;;29.23;58.51;99399.22;4997336;28;20238;-74
2022/09/03 07:30:19;;;;;;;7.27;6.53;;;;;;;29.50;58.44;99394.25;4993440;28;20221;-70
2022/09/03 07:32:46;;;;;;;7.57;6.03;;;;;;;29.91;56.85;99404.69;5005480;28;20205;-70
2022/09/03 07:35:13;;;;;;;6.03;5.63;;;;;;;29.92;56.61;99401.63;5003761;28;20205;-71
2022/09/03 07:37:42;;;;;;;10.70;6.43;;;;;;;30.03;56.47;99413.88;4997702;28;20226;-72
2022/09/03 07:40:09;;;;;;;7.27;5.67;;;;;;;30.22;55.61;99406.16;5004169;28;20205;-72
2022/09/03 07:42:39;;;;;;;7.30;5.67;;;;;;;30.03;55.03;99410.31;4995518;28;20285;-74
2022/09/03 07:45:11;;;;;;;9.43;4.70;;;;;;;30.21;53.03;99407.25;4996629;28;20226;-74
2022/09/03 07:47:39;;;;;;;4.60;4.30;;;;;;;29.96;53.63;99418.25;4999070;28;20206;-70
2022/09/03 07:50:07;;;;;;;5.53;4.27;;;;;;;30.31;52.69;99420.63;5002175;28;20293;-70
2022/09/03 07:52:33;;;;;;;5.33;4.10;;;;;;;30.36;51.68;99386.72;4998130;28;20202;-71
2022/09/03 07:55:01;;;;;;;6.33;3.83;;;;;;;30.85;51.45;99430.75;4999136;28;20260;-73
2022/09/03 07:57:28;;;;;;;5.13;4.40;;;;;;;30.62;50.47;99431.31;5002367;28;20202;-72
2022/09/03 07:59:56;;;;;;;4.63;4.23;;;;;;;30.72;52.68;99415.34;5000587;28;20763;-70
2022/09/03 08:02:23;;;;;;;4.93;4.67;;;;;;;30.84;50.98;99418.19;4998589;28;20269;-71
2022/09/03 08:04:50;;;;;;;5.50;5.00;;;;;;;30.78;52.42;99416.75;5000354;28;20210;-71
2022/09/03 08:07:17;;;;;;;10.43;5.20;;;;;;;30.93;52.51;99418.94;5003052;28;20198;-70
2022/09/03 08:09:44;;;;;;;5.60;5.07;;;;;;;30.69;52.00;99410.50;4999052;28;20194;-71
2022/09/03 08:12:10;;;;;;;5.80;5.20;;;;;;;30.65;52.30;99406.78;5000945;28;20276;-72
2022/09/03 08:14:37;;;;;;;5.13;4.83;;;;;;;30.73;52.94;99416.13;5000335;28;20356;-70
2022/09/03 08:17:06;;;;;;;4.87;4.67;;;;;;;30.90;51.08;99405.09;4997195;28;20230;-70
2022/09/03 08:19:33;;;;;;;7.53;4.80;;;;;;;31.14;50.66;99411.53;4999488;28;20245;-70
2022/09/03 08:22:00;;;;;;;5.13;4.83;;;;;;;30.86;49.63;99404.94;5002530;28;20202;-71
2022/09/03 08:24:27;;;;;;;4.67;4.20;;;;;;;31.39;48.86;99407.84;5003103;28;20249;-72
2022/09/03 08:26:54;;;;;;;5.27;4.87;;;;;;;31.61;48.04;99415.72;5002095;28;20657;-72
2022/09/03 08:29:21;;;;;;;5.70;5.20;;;;;;;30.94;50.18;99401.34;4998377;28;20218;-70
2022/09/03 08:31:48;;;;;;;7.63;6.20;;;;;;;30.64;51.14;99396.94;5003154;28;20670;-71
2022/09/03 08:34:17;;;;;;;6.40;6.10;;;;;;;30.21;51.35;99404.50;4999728;28;20209;-70
2022/09/03 08:36:45;;;;;;;8.10;5.63;;;;;;;30.21;52.25;99392.75;5004109;28;20198;-71
2022/09/03 08:39:13;;;;;;;6.53;5.73;;;;;;;30.39;51.19;99391.56;5001036;28;20673;-71
2022/09/03 08:42:10;;;;;;;5.97;5.57;;;;;;;30.46;52.73;99392.66;4997369;28;20261;-72
2022/09/03 08:44:45;;;;;;;5.50;5.20;;;;;;;30.66;50.92;99394.66;4998271;28;20187;-72
2022/09/03 08:47:16;;;;;;;10.63;6.00;;;;;;;30.34;51.02;99398.00;5000288;28;20190;-71
2022/09/03 08:49:49;;;;;;;7.90;5.60;;;;;;;29.96;51.79;99391.63;4994023;28;20203;-71
2022/09/03 08:52:27;;;;;;;6.03;5.50;;;;;;;29.88;52.95;99378.75;4996765;28;20195;-71
2022/09/03 08:55:02;;;;;;;8.80;5.93;;;;;;;30.34;52.10;99370.59;4998141;28;20190;-71
2022/09/03 08:57:36;;;;;;;16.20;6.43;;;;;;;30.67;52.49;99373.53;4998507;28;20213;-71
2022/09/03 09:00:05;;;;;;;9.30;6.50;;;;;;;30.76;48.89;99383.38;4999393;28;20193;-71
2022/09/03 09:02:41;;;;;;;6.03;5.63;;;;;;;30.78;49.18;99381.09;4993990;28;20202;-71
2022/09/03 09:05:17;;;;;;;6.27;5.77;;;;;;;31.08;49.15;99385.44;4997569;28;20284;-72
2022/09/03 09:07:52;;;;;;;6.07;5.43;;;;;;;31.49;48.31;99380.00;5001314;28;20748;-71
2022/09/03 09:10:26;;;;;;;6.80;6.50;;;;;;;31.30;47.68;99392.56;4991810;28;20179;-70
2022/09/03 09:13:09;;;;;;;6.23;5.73;;;;;;;31.33;47.63;99378.19;4991506;28;20242;-70
2022/09/03 09:15:46;;;;;;;7.77;6.00;;;;;;;31.22;47.99;99387.91;4991694;28;20191;-70
2022/09/03 09:18:23;;;;;;;6.03;5.63;;;;;;;31.11;47.61;99390.25;4996596;28;20561;-70
2022/09/03 09:20:56;;;;;;;6.30;5.80;;;;;;;30.93;48.25;99393.44;4994885;28;20296;-74
2022/09/03 09:23:29;;;;;;;6.53;6.03;;;;;;;31.14;46.80;99395.06;5000713;28;20261;-72
2022/09/03 09:25:59;;;;;;;10.07;6.63;;;;;;;30.75;48.34;99392.75;4988199;28;20202;-73
2022/09/03 09:28:32;;;;;;;6.70;6.10;;;;;;;30.70;49.49;99376.44;4992252;28;20229;-73
2022/09/03 09:31:04;;;;;;;6.43;6.03;;;;;;;30.81;50.22;99377.69;5008363;28;20202;-76
2022/09/03 09:33:32;;;;;;;6.57;6.17;;;;;;;30.98;48.47;99391.31;5008067;28;20649;-72
2022/09/03 09:36:02;;;;;;;6.53;6.03;;;;;;;30.92;48.42;99387.16;5007755;28;20193;-73
2022/09/03 09:38:31;;;;;;;20.67;6.70;;;;;;;30.79;47.87;99355.25;5005734;28;20218;-73
2022/09/03 09:41:09;;;;;;;6.33;5.77;;;;;;;31.12;47.60;99385.56;5006951;28;20201;-72
2022/09/03 09:43:37;;;;;;;6.50;6.07;;;;;;;31.33;47.26;99386.41;4997332;28;20221;-74
2022/09/03 09:46:08;;;;;;;6.20;5.80;;;;;;;31.35;46.85;99389.66;4997999;28;20686;-74
2022/09/03 09:48:39;;;;;;;6.13;5.73;;;;;;;31.12;47.01;99386.38;5005338;28;20198;-76
2022/09/03 09:51:11;;;;;;;6.73;6.33;;;;;;;30.84;48.40;99382.53;4994379;28;20193;-74
2022/09/03 09:53:39;;;;;;;7.20;5.73;;;;;;;30.72;48.36;99370.63;5000380;28;20191;-74
2022/09/03 09:56:06;;;;;;;12.77;6.40;;;;;;;30.74;47.99;99374.66;4988255;28;20281;-74
2022/09/03 09:58:34;;;;;;;6.37;5.73;;;;;;;30.96;47.96;99377.13;5005329;28;20226;-71
2022/09/03 10:01:08;;;;;;;5.67;5.27;;;;;;;31.23;47.23;99379.38;4997486;28;20210;-71
2022/09/03 10:03:35;;;;;;;5.97;5.57;;;;;;;31.59;46.84;99384.25;5002612;28;20193;-73
2022/09/03 10:08:48;;;;;;;7.87;5.33;;;;;;;31.24;46.87;99382.94;4986817;28;20238;-71
2022/09/03 10:11:17;;;;;;;6.67;6.10;;;;;;;31.25;47.22;99374.38;4999968;28;20197;-70
2022/09/03 10:13:47;;;;;;;6.57;6.07;;;;;;;31.33;48.14;99369.94;5000119;28;20198;-70
2022/09/03 10:16:22;;;;;;;6.30;5.80;;;;;;;31.42;47.79;99371.47;5008284;28;20302;-71
2022/09/03 10:18:58;;;;;;;6.37;5.77;;;;;;;31.40;46.79;99360.00;4992276;28;20214;-70
2022/09/03 10:21:31;;;;;;;6.17;5.60;;;;;;;31.64;46.31;99360.13;4998257;28;20211;-70
2022/09/03 10:24:15;;;;;;;6.13;5.67;;;;;;;31.87;45.96;99363.34;4993240;28;20205;-70
2022/09/03 10:26:44;;;;;;;6.27;5.67;;;;;;;31.77;46.14;99364.56;4987254;28;20689;-70
2022/09/03 10:29:16;;;;;;;7.40;5.97;;;;;;;31.92;46.09;99361.19;4987839;28;20210;-70
2022/09/03 10:31:54;;;;;;;6.13;5.63;;;;;;;31.78;45.96;99357.94;4991668;28;20206;-69
2022/09/03 10:34:33;;;;;;;6.57;5.63;;;;;;;32.32;45.67;99361.41;4992555;28;20571;-68
2022/09/03 10:37:06;;;;;;;10.47;6.77;;;;;;;32.46;45.91;99359.16;5010284;28;20573;-70
2022/09/03 10:39:45;;;;;;;6.93;6.40;;;;;;;32.56;44.69;99359.50;4994417;28;20218;-69
2022/09/03 10:42:25;;;;;;;7.17;6.57;;;;;;;32.02;45.00;99358.03;4986619;28;20191;-69
2022/09/03 10:45:02;;;;;;;13.00;6.57;;;;;;;31.66;46.47;99357.88;4985756;28;20198;-69
2022/09/03 10:47:48;;;;;;;12.23;7.30;;;;;;;31.39;47.05;99357.63;4984530;28;20635;-68
2022/09/03 10:50:18;;;;;;;7.33;6.07;;;;;;;31.14;47.43;99353.91;4991774;28;20287;-71
2022/09/03 10:53:05;;;;;;;7.67;7.00;;;;;;;31.18;47.48;99357.59;4985103;28;20194;-70
2022/09/03 10:55:42;;;;;;;7.17;6.67;;;;;;;31.20;47.50;99355.28;4994321;28;20208;-68
2022/09/03 10:58:25;;;;;;;6.23;5.83;;;;;;;31.23;47.71;99351.91;4988174;28;20289;-70
2022/09/03 11:00:58;;;;;;;6.43;5.97;;;;;;;31.38;47.64;99350.50;4983989;28;20266;-71
2022/09/03 11:03:48;;;;;;;7.20;6.70;;;;;;;31.40;47.89;99349.03;4983262;28;20198;-70
2022/09/03 11:06:20;;;;;;;7.10;6.70;;;;;;;31.41;47.97;99355.34;4978204;28;20246;-70
2022/09/03 11:08:55;;;;;;;7.17;6.27;;;;;;;31.34;46.48;99355.06;4987350;28;20651;-71
2022/09/03 11:11:31;;;;;;;6.50;6.10;;;;;;;31.41;47.23;99358.91;4985015;28;20190;-70
2022/09/03 11:14:03;;;;;;;6.70;6.40;;;;;;;31.61;46.49;99360.78;4986340;28;20179;-70
2022/09/03 11:16:34;;;;;;;6.70;6.30;;;;;;;31.43;46.37;99364.84;4980624;28;20620;-72
2022/09/03 11:19:05;;;;;;;6.40;5.90;;;;;;;31.33;47.19;99354.28;4987021;28;20702;-69
2022/09/03 11:21:34;;;;;;;6.53;6.03;;;;;;;31.76;45.54;99359.41;4984287;28;20997;-72
2022/09/03 11:24:11;;;;;;;10.60;6.43;;;;;;;31.79;45.41;99345.00;4989377;28;20194;-75
2022/09/03 11:26:42;;;;;;;6.80;6.20;;;;;;;31.69;46.81;99346.19;4986779;28;20185;-72
2022/09/03 11:29:16;;;;;;;6.30;6.00;;;;;;;32.01;46.40;99345.41;4995631;28;20222;-72
2022/09/03 11:31:56;;;;;;;6.87;6.10;;;;;;;31.48;46.87;99348.16;4993928;28;20269;-73
2022/09/03 11:34:30;;;;;;;5.57;5.07;;;;;;;31.86;46.04;99346.06;4992601;28;20189;-71
2022/09/03 11:37:18;;;;;;;4.93;4.53;;;;;;;31.43;46.21;99344.81;4984521;28;20186;-73
2022/09/03 11:39:53;;;;;;;5.77;5.30;;;;;;;31.63;45.61;99342.06;4991458;28;20305;-73
2022/09/03 11:42:28;;;;;;;10.53;5.10;;;;;;;31.66;45.35;99346.06;4993139;28;20186;-73
2022/09/03 11:45:00;;;;;;;5.00;4.63;;;;;;;31.68;45.23;99346.53;4992237;28;20187;-75
2022/09/03 11:47:39;;;;;;;4.60;4.20;;;;;;;31.70;44.83;99342.31;4994831;28;20245;-74